Time;durP1;ratioP1;P1;durP2;ratioP2;P2;SDS_P1;SDS_P2;PMS_P1;PMS_P2;Temp;Humidity;BMP_temperature;BMP_pressure;BME280_temperature;BME280_humidity;BME280_pressure;Samples;Min_cycle;Max_cycle;Signal;HPM_P1;HPM_P2
2023/11/14 20:32:51;;;;;;;9.40;3.90;;;;;;;9.79;84.48;98249.79;82380;1301;3013732;-68
2023/11/14 20:35:18;;;;;;;8.50;5.20;;;;;;;9.56;85.04;98258.39;79541;1307;3012666;-68
2023/11/14 20:37:47;;;;;;;13.20;5.80;;;;;;;9.22;85.88;98254.44;78947;1307;3026530;-67
2023/11/14 20:40:15;;;;;;;11.10;5.90;;;;;;;8.90;87.37;98247.55;80038;1302;3013088;-67
2023/11/14 20:42:42;;;;;;;11.00;5.00;;;;;;;9.04;86.63;98249.45;79887;1307;3011510;-68
2023/11/14 20:45:11;;;;;;;17.30;5.50;;;;;;;9.29;87.04;98245.65;75645;1300;6599151;-68
2023/11/14 20:47:39;;;;;;;8.00;4.90;;;;;;;9.53;84.95;98245.65;79769;1299;3013241;-68
2023/11/14 20:51:11;;;;;;;12.70;5.60;;;;;;;9.26;85.32;98249.20;81293;1300;3012909;-69
2023/11/14 20:53:39;;;;;;;11.10;5.30;;;;;;;9.00;86.26;98256.34;79727;1306;3013219;-68
2023/11/14 20:56:06;;;;;;;10.10;5.70;;;;;;;8.82;86.39;98261.85;81621;1302;3011251;-70
2023/11/14 20:58:35;;;;;;;10.40;5.10;;;;;;;8.40;88.52;98258.20;80358;1302;3052571;-69
2023/11/14 21:01:02;;;;;;;10.00;4.90;;;;;;;8.53;88.12;98258.20;81631;1303;3012710;-68
2023/11/14 21:03:30;;;;;;;8.70;4.20;;;;;;;8.79;87.67;98260.19;78951;1304;3596153;-70
2023/11/14 21:05:58;;;;;;;9.30;5.10;;;;;;;9.42;85.17;98263.58;80554;1299;3049359;-71
2023/11/14 21:08:26;;;;;;;9.10;5.30;;;;;;;8.94;85.02;98265.88;81786;1299;3011305;-69
2023/11/14 21:10:53;;;;;;;12.70;5.20;;;;;;;8.79;85.34;98270.13;81779;1299;3012573;-70
2023/11/14 21:13:22;;;;;;;10.70;6.30;;;;;;;8.30;87.49;98276.34;80522;1299;3052025;-70
2023/11/14 21:15:49;;;;;;;10.20;6.10;;;;;;;8.34;87.31;98282.57;81788;1300;3018656;-69
2023/11/14 21:18:16;;;;;;;10.60;5.80;;;;;;;8.10;88.40;98282.27;81771;1300;3011263;-69
2023/11/14 21:20:44;;;;;;;11.50;5.20;;;;;;;8.46;87.58;98276.45;80548;1301;3026626;-70
2023/11/14 21:23:11;;;;;;;9.80;5.90;;;;;;;8.64;86.77;98279.06;81988;1296;3012818;-69
2023/11/14 21:25:38;;;;;;;9.80;5.00;;;;;;;8.53;86.75;98275.98;81895;1297;3011267;-70
2023/11/14 21:28:07;;;;;;;12.00;6.20;;;;;;;8.48;85.67;98279.52;80718;1297;3026201;-70
2023/11/14 21:30:36;;;;;;;13.50;6.20;;;;;;;8.17;87.03;98277.09;81958;1297;3011102;-70
2023/11/14 21:33:09;;;;;;;10.90;4.90;;;;;;;8.02;87.24;98280.73;81430;1298;3011424;-69
2023/11/14 21:35:37;;;;;;;9.40;4.60;;;;;;;7.94;88.02;98294.52;81958;1297;3011356;-70
2023/11/14 21:38:09;;;;;;;10.80;4.80;;;;;;;8.53;87.16;98285.42;80677;1296;3047876;-70
2023/11/14 21:40:37;;;;;;;13.80;5.80;;;;;;;8.95;84.33;98273.02;81979;1296;3011529;-70
2023/11/14 21:43:05;;;;;;;7.70;4.40;;;;;;;8.55;83.78;98278.11;80723;1296;3027683;-70
2023/11/14 21:45:32;;;;;;;9.20;4.90;;;;;;;8.40;84.33;98281.05;81963;1300;3018716;-70
2023/11/14 21:47:59;;;;;;;9.00;5.10;;;;;;;8.06;85.47;98274.38;81964;1299;3011262;-70
2023/11/14 21:50:27;;;;;;;9.10;4.80;;;;;;;7.85;86.18;98285.35;80701;1300;3027070;-69
2023/11/14 21:52:54;;;;;;;9.10;4.60;;;;;;;7.99;86.71;98280.58;81955;1296;3011319;-73
2023/11/14 21:55:22;;;;;;;7.00;4.20;;;;;;;8.49;84.24;98280.77;81954;1296;3011114;-68
2023/11/14 21:57:50;;;;;;;8.60;4.40;;;;;;;8.56;83.71;98279.45;80685;1297;3050244;-70
2023/11/14 22:00:17;;;;;;;10.00;5.30;;;;;;;8.24;84.38;98281.84;81962;1297;3012467;-68
2023/11/14 22:02:45;;;;;;;16.50;6.60;;;;;;;7.83;85.59;98279.75;81912;1298;3011242;-69
2023/11/14 22:05:13;;;;;;;11.10;6.10;;;;;;;7.72;86.62;98279.94;80657;1297;3051764;-69
2023/11/14 22:07:40;;;;;;;9.20;4.90;;;;;;;7.63;87.03;98282.14;81964;1297;3018612;-69
2023/11/14 22:10:08;;;;;;;9.10;4.50;;;;;;;7.54;87.57;98285.54;81914;1296;3011380;-69
2023/11/14 22:12:36;;;;;;;10.00;5.00;;;;;;;8.53;84.94;98300.27;80654;1298;3026719;-71
2023/11/14 22:15:03;;;;;;;12.20;4.60;;;;;;;8.47;84.06;98285.09;81957;1297;3018326;-71
2023/11/14 22:17:31;;;;;;;7.30;4.00;;;;;;;8.27;83.89;98290.85;81912;1300;3011345;-68
2023/11/14 22:19:59;;;;;;;14.90;5.60;;;;;;;8.06;84.25;98282.03;80694;1297;3051055;-69
2023/11/14 22:22:26;;;;;;;10.80;5.60;;;;;;;7.92;84.57;98285.09;81943;1296;3013421;-70
2023/11/14 22:24:53;;;;;;;11.10;5.00;;;;;;;7.64;85.33;98276.31;81932;1297;3011317;-68
2023/11/14 22:27:21;;;;;;;10.40;4.90;;;;;;;7.61;86.23;98275.32;80627;1300;3048324;-71
2023/11/14 22:29:49;;;;;;;13.10;4.60;;;;;;;8.16;85.47;98266.31;81928;1300;3018731;-69
2023/11/14 22:32:16;;;;;;;9.50;4.70;;;;;;;8.15;83.82;98265.89;81906;1297;3011389;-71
2023/11/14 22:34:44;;;;;;;10.50;4.90;;;;;;;8.16;84.25;98264.05;80675;1296;3049292;-68
2023/11/14 22:37:11;;;;;;;9.20;4.80;;;;;;;7.90;84.23;98261.64;81973;1296;3012592;-68
2023/11/14 22:39:38;;;;;;;10.90;6.30;;;;;;;7.74;84.89;98260.84;81953;1295;3011062;-69
2023/11/14 22:42:07;;;;;;;10.70;5.60;;;;;;;7.62;85.07;98268.27;80688;1295;3026675;-68
2023/11/14 22:44:33;;;;;;;6.40;3.60;;;;;;;7.29;86.49;98271.17;81968;1296;3013403;-70
2023/11/14 22:47:00;;;;;;;12.20;5.90;;;;;;;7.71;86.34;98270.30;81944;1297;3011417;-69
2023/11/14 22:49:30;;;;;;;11.90;6.10;;;;;;;8.10;84.48;98267.62;80663;1296;3025805;-69
2023/11/14 22:51:56;;;;;;;12.30;5.00;;;;;;;7.98;84.16;98270.38;81957;1297;3012820;-69
2023/11/14 22:54:23;;;;;;;13.30;6.80;;;;;;;7.83;83.88;98264.04;81927;1296;3011195;-68
2023/11/14 22:56:52;;;;;;;15.20;7.10;;;;;;;7.50;85.45;98270.27;80691;1296;3049026;-68
2023/11/14 22:59:19;;;;;;;16.70;6.90;;;;;;;7.14;87.04;98267.77;81966;1300;3012591;-68
2023/11/14 23:01:46;;;;;;;9.80;5.50;;;;;;;7.13;86.95;98265.39;81946;1300;3011547;-68
2023/11/14 23:04:16;;;;;;;9.40;5.70;;;;;;;7.34;87.41;98261.42;80662;1298;3049927;-70
2023/11/14 23:06:43;;;;;;;12.20;5.40;;;;;;;7.83;85.28;98263.04;81918;1297;3012735;-68
2023/11/14 23:09:14;;;;;;;10.80;5.40;;;;;;;7.55;86.07;98263.01;81965;1298;3011411;-68
2023/11/14 23:11:46;;;;;;;12.50;5.90;;;;;;;7.34;86.35;98271.17;80659;1297;3048681;-67
2023/11/14 23:14:14;;;;;;;13.20;5.50;;;;;;;7.28;86.03;98263.36;81929;1296;3011160;-68
2023/11/14 23:16:42;;;;;;;12.70;6.20;;;;;;;7.10;86.80;98269.12;80687;1297;3052275;-68
2023/11/14 23:19:09;;;;;;;11.50;6.50;;;;;;;6.77;88.59;98272.41;81939;1300;3012394;-68
2023/11/14 23:21:37;;;;;;;9.50;5.20;;;;;;;6.73;89.24;98265.58;81921;1297;3011319;-68
2023/11/14 23:24:06;;;;;;;10.50;5.20;;;;;;;7.43;87.34;98263.93;80700;1296;3049305;-68
2023/11/14 23:26:33;;;;;;;9.30;4.20;;;;;;;8.05;84.41;98262.38;81926;1298;3011547;-68
2023/11/14 23:29:06;;;;;;;9.50;5.10;;;;;;;7.70;83.74;98261.27;81391;1297;3011532;-68
2023/11/14 23:31:33;;;;;;;9.60;4.90;;;;;;;7.40;85.38;98259.48;81977;1295;3011508;-68
2023/11/14 23:34:02;;;;;;;11.90;6.20;;;;;;;7.30;85.21;98265.67;81478;1297;3011365;-68
2023/11/14 23:36:29;;;;;;;14.30;5.70;;;;;;;6.95;86.55;98270.73;81981;1300;3013295;-69
2023/11/14 23:38:56;;;;;;;13.40;5.60;;;;;;;6.91;86.61;98265.79;81875;1297;3011473;-68
2023/11/14 23:41:25;;;;;;;7.70;4.70;;;;;;;7.02;87.62;98265.21;80654;1296;3048917;-68
2023/11/14 23:43:52;;;;;;;7.80;4.20;;;;;;;7.49;85.85;98271.62;81864;1296;3011895;-69
2023/11/14 23:46:22;;;;;;;7.90;4.70;;;;;;;7.31;86.03;98272.06;81893;1301;3011211;-69
2023/11/14 23:48:50;;;;;;;10.20;5.10;;;;;;;7.21;86.22;98278.13;80684;1297;3051263;-70
2023/11/14 23:51:18;;;;;;;9.50;5.70;;;;;;;7.19;85.95;98267.64;81999;1295;3012471;-69
2023/11/14 23:53:45;;;;;;;9.80;6.10;;;;;;;7.16;85.47;98266.09;81985;1297;3011195;-70
2023/11/14 23:56:13;;;;;;;8.60;4.50;;;;;;;7.00;85.85;98274.98;80717;1295;3049750;-69
2023/11/14 23:58:40;;;;;;;9.60;4.90;;;;;;;7.14;86.81;98269.71;81985;1295;3011156;-69
